createdAt,value
2019-06-01T00:01:15.900Z,99148.91
2019-06-01T00:03:46.471Z,99144.31
2019-06-01T00:06:16.255Z,99147.84
2019-06-01T00:08:47.129Z,99153.25
2019-06-01T00:11:16.900Z,99151.08
2019-06-01T00:13:47.567Z,99144.86
2019-06-01T00:16:17.365Z,99147.02
2019-06-01T00:18:48.226Z,99152.97
2019-06-01T00:21:18.119Z,99145.39
2019-06-01T00:23:48.717Z,99147.28
2019-06-01T00:26:18.575Z,99151.87
2019-06-01T00:28:48.277Z,99144.33
2019-06-01T00:31:17.934Z,99139.20
2019-06-01T00:33:47.690Z,99139.73
2019-06-01T00:36:17.370Z,99143.51
2019-06-01T00:38:47.886Z,99139.42
2019-06-01T00:41:17.616Z,99140.23
2019-06-01T00:43:48.716Z,99136.71
2019-06-01T00:46:18.565Z,99139.70
2019-06-01T00:48:49.874Z,99136.72
2019-06-01T00:51:19.659Z,99136.70
2019-06-01T00:53:49.714Z,99137.53
2019-06-01T00:56:19.486Z,99125.37
2019-06-01T00:58:49.827Z,99131.59
2019-06-01T01:01:19.661Z,99125.66
2019-06-01T01:03:50.199Z,99133.19
2019-06-01T01:06:20.018Z,99133.48
2019-06-01T01:08:50.615Z,99134.55
2019-06-01T01:11:20.665Z,99131.79
2019-06-01T01:13:51.287Z,99129.62
2019-06-01T01:16:21.094Z,99130.96
2019-06-01T01:18:51.847Z,99129.91
2019-06-01T01:21:21.613Z,99130.94
2019-06-01T01:23:52.953Z,99131.47
2019-06-01T01:26:22.615Z,99130.64
2019-06-01T01:28:52.971Z,99129.84
2019-06-01T01:31:22.770Z,99124.98
2019-06-01T01:33:53.373Z,99126.88
2019-06-01T01:36:23.081Z,99121.73
2019-06-01T01:38:54.230Z,99126.61
2019-06-01T01:41:24.028Z,99129.95
2019-06-01T01:43:54.627Z,99132.81
2019-06-01T01:46:24.375Z,99128.27
2019-06-01T01:48:54.299Z,99126.53
2019-06-01T01:51:23.990Z,99131.17
2019-06-01T01:53:54.722Z,99127.42
2019-06-01T01:56:24.426Z,99128.03
2019-06-01T01:58:54.359Z,99121.27
2019-06-01T02:01:24.076Z,99123.95
2019-06-01T02:03:55.364Z,99126.16
2019-06-01T02:06:28.814Z,99122.45
2019-06-01T02:08:57.124Z,99123.22
2019-06-01T02:11:26.903Z,99124.03
2019-06-01T02:13:57.715Z,99123.75
2019-06-01T02:16:27.552Z,99123.80
2019-06-01T02:18:58.743Z,99117.31
2019-06-01T02:21:28.611Z,99117.30
2019-06-01T02:23:59.028Z,99118.66
2019-06-01T02:26:28.860Z,99110.55
2019-06-01T02:28:59.447Z,99111.05
2019-06-01T02:31:41.044Z,99115.11
2019-06-01T02:34:01.601Z,99112.18
2019-06-01T02:36:32.092Z,99113.68
2019-06-01T02:39:03.215Z,99110.70
2019-06-01T02:41:33.068Z,99107.18
2019-06-01T02:44:03.909Z,99112.56
2019-06-01T02:46:35.714Z,99106.89
2019-06-01T02:49:06.318Z,99112.80
2019-06-01T02:51:36.095Z,99107.94
2019-06-01T02:54:06.352Z,99112.59
2019-06-01T02:56:36.147Z,99115.60
2019-06-01T02:59:06.787Z,99113.39
2019-06-01T03:01:39.010Z,99115.27
2019-06-01T03:04:10.467Z,99117.97
2019-06-01T03:06:43.355Z,99113.42
2019-06-01T03:09:13.613Z,99110.73
2019-06-01T03:11:43.869Z,99118.73
2019-06-01T03:14:14.011Z,99120.93
2019-06-01T03:16:44.879Z,99118.78
2019-06-01T03:19:18.682Z,99122.56
2019-06-01T03:21:51.681Z,99124.52
2019-06-01T03:24:25.485Z,99126.41
2019-06-01T03:26:56.141Z,99117.78
2019-06-01T03:29:30.617Z,99124.27
2019-06-01T03:32:19.212Z,99115.33
2019-06-01T03:34:31.721Z,99113.42
2019-06-01T03:37:02.864Z,99116.56
2019-06-01T03:39:33.284Z,99118.95
2019-06-01T03:42:03.341Z,99115.63
2019-06-01T03:44:33.214Z,99117.23
2019-06-01T03:47:03.864Z,99113.05
2019-06-01T03:49:33.558Z,99116.04
2019-06-01T03:52:03.269Z,99115.98
2019-06-01T03:54:32.892Z,99117.83
2019-06-01T03:57:03.722Z,99116.87
2019-06-01T03:59:33.782Z,99115.56
2019-06-01T04:02:05.006Z,99115.28
2019-06-01T04:04:34.795Z,99115.77
2019-06-01T04:07:04.784Z,99115.78
2019-06-01T04:09:34.429Z,99111.73
2019-06-01T04:12:04.123Z,99109.81
2019-06-01T04:14:33.764Z,99116.52
2019-06-01T04:17:04.153Z,99115.94
2019-06-01T04:19:33.888Z,99113.36
2019-06-01T04:22:04.075Z,99112.59
2019-06-01T04:24:33.861Z,99111.09
2019-06-01T04:27:04.127Z,99115.39
2019-06-01T04:29:33.918Z,99108.70
2019-06-01T04:32:04.511Z,99118.13
2019-06-01T04:34:35.803Z,99108.70
2019-06-01T04:37:07.000Z,99106.48
2019-06-01T04:39:36.768Z,99109.21
2019-06-01T04:42:07.691Z,99112.13
2019-06-01T04:44:37.436Z,99114.30
2019-06-01T04:47:09.127Z,99115.39
2019-06-01T04:49:38.488Z,99112.72
2019-06-01T04:52:08.864Z,99115.44
2019-06-01T04:54:38.638Z,99111.40
2019-06-01T04:57:08.906Z,99122.20
2019-06-01T04:59:38.662Z,99117.97
2019-06-01T05:02:09.277Z,99118.54
2019-06-01T05:04:39.080Z,99120.94
2019-06-01T05:07:09.288Z,99129.07
2019-06-01T05:09:39.018Z,99123.91
2019-06-01T05:12:09.349Z,99118.28
2019-06-01T05:14:39.065Z,99122.32
2019-06-01T05:17:10.068Z,99124.23
2019-06-01T05:19:40.010Z,99121.88
2019-06-01T05:22:10.513Z,99126.74
2019-06-01T05:24:40.296Z,99128.33
2019-06-01T05:27:11.156Z,99129.44
2019-06-01T05:29:40.804Z,99125.20
2019-06-01T05:32:10.503Z,99130.86
2019-06-01T05:34:40.152Z,99124.16
2019-06-01T05:37:10.749Z,99124.14
2019-06-01T05:39:40.803Z,99123.86
2019-06-01T05:42:10.689Z,99132.27
2019-06-01T05:44:40.344Z,99130.65
2019-06-01T05:47:10.259Z,99128.77
2019-06-01T05:49:39.875Z,99128.79
2019-06-01T05:52:10.366Z,99124.23
2019-06-01T05:54:40.138Z,99120.99
2019-06-01T05:57:10.489Z,99122.34
2019-06-01T05:59:40.383Z,99122.34
2019-06-01T06:02:11.080Z,99119.95
2019-06-01T06:04:41.012Z,99115.12
2019-06-01T06:07:10.729Z,99114.11
2019-06-01T06:09:40.459Z,99117.08
2019-06-01T06:12:11.254Z,99118.17
2019-06-01T06:14:40.930Z,99115.19
2019-06-01T06:17:12.865Z,99123.02
2019-06-01T06:19:42.036Z,99118.22
2019-06-01T06:22:12.021Z,99109.91
2019-06-01T06:24:41.688Z,99120.12
2019-06-01T06:27:12.348Z,99120.42
2019-06-01T06:29:44.015Z,99117.74
2019-06-01T06:32:13.704Z,99121.60
2019-06-01T06:34:43.332Z,99118.09
2019-06-01T06:37:13.475Z,99109.48
2019-06-01T06:39:43.189Z,99111.38
2019-06-01T06:42:13.991Z,99114.09
2019-06-01T06:44:43.734Z,99110.06
2019-06-01T06:47:14.623Z,99112.52
2019-06-01T06:49:44.391Z,99117.91
2019-06-01T06:52:15.145Z,99111.97
2019-06-01T06:54:44.834Z,99111.72
2019-06-01T06:57:14.450Z,99107.41
2019-06-01T06:59:44.090Z,99099.88
2019-06-01T07:02:13.725Z,99101.23
2019-06-01T07:04:43.381Z,99103.96
2019-06-01T07:07:13.014Z,99104.80
2019-06-01T07:09:42.802Z,99098.33
2019-06-01T07:12:12.837Z,99100.25
2019-06-01T07:14:42.529Z,99101.07
2019-06-01T07:17:15.540Z,99101.08
2019-06-01T07:19:43.520Z,99105.94
2019-06-01T07:22:16.306Z,99106.23
2019-06-01T07:24:44.509Z,99104.31
2019-06-01T07:27:14.181Z,99107.30
2019-06-01T07:29:43.798Z,99104.59
2019-06-01T07:32:13.420Z,99102.70
2019-06-01T07:34:43.756Z,99108.66
2019-06-01T07:37:13.378Z,99102.43
2019-06-01T07:39:43.041Z,99102.69
2019-06-01T07:42:12.711Z,99096.19
2019-06-01T07:44:42.397Z,99098.09
2019-06-01T07:47:12.026Z,99104.28
2019-06-01T07:49:41.667Z,99095.08
2019-06-01T07:52:13.397Z,99092.66
2019-06-01T07:54:42.742Z,99096.17
2019-06-01T07:57:12.427Z,99095.61
2019-06-01T07:59:42.049Z,99087.77
2019-06-01T08:02:11.769Z,99095.02
2019-06-01T08:04:53.185Z,99095.29
2019-06-01T08:07:12.770Z,99088.48
2019-06-01T08:09:42.391Z,99080.59
2019-06-01T08:12:12.027Z,99086.81
2019-06-01T08:14:41.649Z,99076.23
2019-06-01T08:17:11.304Z,99074.86
2019-06-01T08:19:40.923Z,99065.91
2019-06-01T08:22:10.653Z,99062.64
2019-06-01T08:24:40.265Z,99061.17
2019-06-01T08:27:09.927Z,99058.73
2019-06-01T08:29:39.572Z,99058.13
2019-06-01T08:32:09.183Z,99054.00
2019-06-01T08:34:38.828Z,99057.44
2019-06-01T08:37:08.453Z,99044.36
2019-06-01T08:39:38.095Z,99045.67
2019-06-01T08:42:07.802Z,99038.76
2019-06-01T08:44:37.503Z,99042.52
2019-06-01T08:47:07.132Z,99037.00
2019-06-01T08:49:36.793Z,99038.88
2019-06-01T08:52:06.591Z,99037.67
2019-06-01T08:54:36.270Z,99041.17
2019-06-01T08:57:05.984Z,99032.74
2019-06-01T08:59:35.611Z,99035.67
2019-06-01T09:02:05.324Z,99031.05
2019-06-01T09:04:35.044Z,99035.45
2019-06-01T09:07:04.808Z,99034.23
2019-06-01T09:09:35.205Z,99027.33
2019-06-01T09:12:05.306Z,99031.42
2019-06-01T09:14:35.570Z,99025.63
2019-06-01T09:17:05.359Z,99021.55
2019-06-01T09:19:35.738Z,99018.08
2019-06-01T09:22:05.546Z,99021.16
2019-06-01T09:24:36.164Z,99016.84
2019-06-01T09:27:06.075Z,99007.38
2019-06-01T09:29:36.215Z,99014.63
2019-06-01T09:32:10.547Z,99013.55
2019-06-01T09:34:37.429Z,99005.09
2019-06-01T09:37:07.111Z,99009.95
2019-06-01T09:39:37.278Z,99003.13
2019-06-01T09:42:07.159Z,99006.93
2019-06-01T09:44:37.329Z,99003.83
2019-06-01T09:47:07.980Z,99002.59
2019-06-01T09:49:38.009Z,99005.58
2019-06-01T09:52:12.023Z,99000.91
2019-06-01T09:54:39.180Z,99001.23
2019-06-01T09:57:08.885Z,98999.47
2019-06-01T09:59:38.583Z,98996.63
2019-06-01T10:02:08.468Z,98993.73
2019-06-01T10:04:38.860Z,98994.45
2019-06-01T10:07:08.645Z,98991.01
2019-06-01T10:09:38.270Z,98990.24
2019-06-01T10:12:08.007Z,98994.26
2019-06-01T10:14:39.286Z,98994.79
2019-06-01T10:17:09.303Z,98994.93
2019-06-01T10:19:38.998Z,98996.29
2019-06-01T10:22:08.656Z,98995.95
2019-06-01T10:24:39.301Z,98992.87
2019-06-01T10:27:09.002Z,98995.20
2019-06-01T10:29:39.982Z,98992.06
2019-06-01T10:32:09.791Z,98981.26
2019-06-01T10:34:39.908Z,98973.41
2019-06-01T10:37:09.742Z,98978.05
2019-06-01T10:39:39.522Z,98969.55
2019-06-01T10:42:09.169Z,98973.63
2019-06-01T10:44:45.020Z,98973.19
2019-06-01T10:47:10.165Z,98972.52
2019-06-01T10:49:40.132Z,98968.36
2019-06-01T10:52:10.099Z,98963.59
2019-06-01T10:54:40.281Z,98967.20
2019-06-01T10:57:10.016Z,98961.33
2019-06-01T10:59:40.549Z,98968.86
2019-06-01T11:02:10.333Z,98961.92
2019-06-01T11:04:41.136Z,98958.97
2019-06-01T11:07:10.891Z,98954.94
2019-06-01T11:09:41.199Z,98948.97
2019-06-01T11:12:10.876Z,98951.14
2019-06-01T11:14:41.272Z,98945.91
2019-06-01T11:17:11.088Z,98949.47
2019-06-01T11:19:42.047Z,98946.47
2019-06-01T11:22:11.798Z,98942.42
2019-06-01T11:24:41.676Z,98941.88
2019-06-01T11:27:11.446Z,98931.83
2019-06-01T11:29:48.265Z,98932.63
2019-06-01T11:32:12.526Z,98926.48
2019-06-01T11:34:42.496Z,98924.75
2019-06-01T11:37:15.227Z,98927.32
2019-06-01T11:39:44.806Z,98924.59
2019-06-01T11:42:14.704Z,98919.81
2019-06-01T11:44:44.886Z,98910.63
2019-06-01T11:47:14.979Z,98908.91
2019-06-01T11:49:45.113Z,98899.06
2019-06-01T11:52:14.850Z,98896.52
2019-06-01T11:54:45.448Z,98892.77
2019-06-01T11:57:15.208Z,98890.91
2019-06-01T11:59:45.687Z,98892.73
2019-06-01T12:02:15.695Z,98882.78
2019-06-01T12:04:46.367Z,98878.68
2019-06-01T12:07:17.989Z,98878.70
2019-06-01T12:09:47.476Z,98883.75
2019-06-01T12:12:17.100Z,98866.22
2019-06-01T12:14:46.884Z,98874.28
2019-06-01T12:17:16.533Z,98867.38
2019-06-01T12:19:46.992Z,98866.97
2019-06-01T12:22:16.782Z,98866.13
2019-06-01T12:24:47.372Z,98857.50
2019-06-01T12:27:17.129Z,98860.24
2019-06-01T12:29:48.271Z,98858.41
2019-06-01T12:32:18.128Z,98854.59
2019-06-01T12:34:48.497Z,98855.45
2019-06-01T12:37:36.090Z,98847.48
2019-06-01T12:39:52.849Z,98852.86
2019-06-01T12:42:21.150Z,98848.42
2019-06-01T12:44:51.825Z,98844.70
2019-06-01T12:47:21.771Z,98848.83
2019-06-01T12:49:52.697Z,98841.61
2019-06-01T12:52:22.532Z,98831.30
2019-06-01T12:54:53.108Z,98826.70
2019-06-01T12:57:22.971Z,98831.86
2019-06-01T12:59:53.153Z,98830.88
2019-06-01T13:02:22.894Z,98827.30
2019-06-01T13:04:53.087Z,98820.84
2019-06-01T13:07:22.947Z,98822.01
2019-06-01T13:09:53.171Z,98819.32
2019-06-01T13:12:22.793Z,98815.83
2019-06-01T13:14:52.608Z,98810.81
2019-06-01T13:17:22.303Z,98807.05
2019-06-01T13:19:52.019Z,98803.19
2019-06-01T13:22:21.650Z,98805.52
2019-06-01T13:24:52.040Z,98802.13
2019-06-01T13:27:21.837Z,98800.29
2019-06-01T13:29:52.284Z,98790.92
2019-06-01T13:32:22.069Z,98790.16
2019-06-01T13:34:51.709Z,98794.95
2019-06-01T13:37:21.353Z,98789.14
2019-06-01T13:39:56.413Z,98785.05
2019-06-01T13:42:22.357Z,98786.59
2019-06-01T13:44:52.053Z,98784.06
2019-06-01T13:47:21.775Z,98778.06
2019-06-01T13:49:51.908Z,98782.94
2019-06-01T13:52:21.687Z,98773.64
2019-06-01T13:54:52.443Z,98778.00
2019-06-01T13:57:22.126Z,98774.03
2019-06-01T13:59:52.955Z,98766.19
2019-06-01T14:02:22.795Z,98761.82
2019-06-01T14:04:52.444Z,98764.73
2019-06-01T14:07:22.075Z,98762.77
2019-06-01T14:09:52.516Z,98761.54
2019-06-01T14:12:23.153Z,98765.53
2019-06-01T14:14:53.565Z,98761.88
2019-06-01T14:17:23.266Z,98747.39
2019-06-01T14:19:53.854Z,98742.92
2019-06-01T14:22:23.671Z,98745.88
2019-06-01T14:25:08.399Z,98744.64
2019-06-01T14:27:24.785Z,98739.80
2019-06-01T14:29:54.494Z,98734.22
2019-06-01T14:32:24.139Z,98737.55
2019-06-01T14:34:54.893Z,98734.92
2019-06-01T14:37:24.684Z,98737.69
2019-06-01T14:39:57.103Z,98726.94
2019-06-01T14:42:26.831Z,98736.33
2019-06-01T14:44:57.761Z,98732.47
2019-06-01T14:47:27.802Z,98740.88
2019-06-01T14:49:57.829Z,98730.81
2019-06-01T14:52:30.392Z,98733.00
2019-06-01T14:55:00.049Z,98732.23
2019-06-01T14:57:29.673Z,98725.29
2019-06-01T14:59:59.312Z,98727.19
2019-06-01T15:02:29.006Z,98726.20
2019-06-01T15:04:58.737Z,98722.27
2019-06-01T15:07:28.367Z,98717.70
2019-06-01T15:09:58.441Z,98718.80
2019-06-01T15:12:28.212Z,98711.53
2019-06-01T15:14:57.878Z,98711.45
2019-06-01T15:17:27.585Z,98707.03
2019-06-01T15:19:58.305Z,98710.53
2019-06-01T15:22:28.031Z,98708.84
2019-06-01T15:24:58.435Z,98703.98
2019-06-01T15:27:28.202Z,98704.56
2019-06-01T15:29:59.019Z,98698.30
2019-06-01T15:32:28.755Z,98695.95
2019-06-01T15:34:59.831Z,98699.28
2019-06-01T15:37:29.742Z,98704.91
2019-06-01T15:39:59.413Z,98693.77
2019-06-01T15:42:29.036Z,98692.76
2019-06-01T15:44:59.254Z,98693.60
2019-06-01T15:47:28.990Z,98691.92
2019-06-01T15:49:59.985Z,98691.39
2019-06-01T15:52:29.737Z,98690.92
2019-06-01T15:55:00.481Z,98697.24
2019-06-01T15:57:30.189Z,98683.73
2019-06-01T16:00:00.648Z,98682.86
2019-06-01T16:02:30.434Z,98682.92
2019-06-01T16:05:01.306Z,98678.88
2019-06-01T16:07:31.183Z,98681.19
2019-06-01T16:10:06.565Z,98676.17
2019-06-01T16:12:32.208Z,98680.80
2019-06-01T16:15:02.216Z,98674.41
2019-06-01T16:17:32.023Z,98673.59
2019-06-01T16:20:02.345Z,98668.22
2019-06-01T16:22:32.167Z,98667.89
2019-06-01T16:25:02.573Z,98670.75
2019-06-01T16:27:32.312Z,98668.53
2019-06-01T16:30:03.826Z,98667.66
2019-06-01T16:32:33.303Z,98657.47
2019-06-01T16:35:03.174Z,98655.39
2019-06-01T16:37:32.794Z,98664.25
2019-06-01T16:40:05.100Z,98666.20
2019-06-01T16:42:33.786Z,98661.27
2019-06-01T16:45:04.206Z,98653.88
2019-06-01T16:47:33.816Z,98657.71
2019-06-01T16:50:04.294Z,98652.87
2019-06-01T16:52:33.989Z,98650.97
2019-06-01T16:55:05.012Z,98654.16
2019-06-01T16:57:35.382Z,98648.45
2019-06-01T17:00:10.926Z,98643.86
2019-06-01T17:02:40.689Z,98642.05
2019-06-01T17:05:12.262Z,98645.62
2019-06-01T17:07:41.881Z,98649.00
2019-06-01T17:10:25.647Z,98653.25
2019-06-01T17:12:45.316Z,98656.36
2019-06-01T17:15:17.655Z,98651.51
2019-06-01T17:17:47.365Z,98650.44
2019-06-01T17:20:41.020Z,98653.16
2019-06-01T17:23:26.285Z,98653.19
2019-06-01T17:25:42.299Z,98656.10
2019-06-01T17:28:12.086Z,98647.51
2019-06-01T17:30:41.839Z,98652.33
2019-06-01T17:33:11.631Z,98649.31
2019-06-01T17:35:41.963Z,98651.33
2019-06-01T17:38:12.203Z,98656.06
2019-06-01T17:40:43.397Z,98652.33
2019-06-01T17:43:15.101Z,98647.58
2019-06-01T17:45:44.840Z,98646.78
2019-06-01T17:48:25.618Z,98650.33
2019-06-01T17:50:45.853Z,98643.38
2019-06-01T17:53:15.507Z,98645.21
2019-06-01T17:55:45.342Z,98643.95
2019-06-01T17:58:15.092Z,98644.39
2019-06-01T18:00:44.903Z,98651.95
2019-06-01T18:03:14.580Z,98647.11
2019-06-01T18:05:44.532Z,98648.56
2019-06-01T18:08:14.708Z,98651.07
2019-06-01T18:10:53.989Z,98647.98
2019-06-01T18:13:16.068Z,98645.36
2019-06-01T18:15:49.305Z,98651.59
2019-06-01T18:18:17.273Z,98652.03
2019-06-01T18:20:47.125Z,98655.04
2019-06-01T18:23:16.775Z,98652.19
2019-06-01T18:25:46.531Z,98651.98
2019-06-01T18:28:19.588Z,98650.52
2019-06-01T18:30:49.118Z,98645.00
2019-06-01T18:33:19.032Z,98649.77
2019-06-01T18:35:48.653Z,98641.77
2019-06-01T18:38:18.447Z,98646.64
2019-06-01T18:40:48.208Z,98651.52
2019-06-01T18:43:19.818Z,98650.48
2019-06-01T18:45:50.046Z,98647.01
2019-06-01T18:48:20.975Z,98654.41
2019-06-01T18:50:50.696Z,98647.02
2019-06-01T18:53:20.389Z,98643.58
2019-06-01T18:55:50.110Z,98643.98
2019-06-01T18:58:19.793Z,98646.20
2019-06-01T19:00:49.513Z,98648.58
2019-06-01T19:03:19.209Z,98645.23
2019-06-01T19:05:48.849Z,98646.27
2019-06-01T19:08:18.470Z,98644.14
2019-06-01T19:10:49.191Z,98650.69
2019-06-01T19:13:19.373Z,98650.04
2019-06-01T19:15:49.077Z,98659.63
2019-06-01T19:18:18.711Z,98655.79
2019-06-01T19:20:48.382Z,98663.91
2019-06-01T19:23:21.803Z,98659.27
2019-06-01T19:25:49.433Z,98667.56
2019-06-01T19:28:19.087Z,98668.60
2019-06-01T19:30:48.963Z,98672.47
2019-06-01T19:33:19.491Z,98675.11
2019-06-01T19:35:52.685Z,98677.36
2019-06-01T19:38:22.874Z,98682.48
2019-06-01T19:40:52.519Z,98682.43
2019-06-01T19:43:22.170Z,98686.66
2019-06-01T19:45:51.791Z,98688.83
2019-06-01T19:48:21.460Z,98691.71
2019-06-01T19:50:51.074Z,98694.99
2019-06-01T19:53:20.699Z,98695.13
2019-06-01T19:55:50.351Z,98698.19
2019-06-01T19:58:20.000Z,98697.46
2019-06-01T20:00:49.692Z,98700.09
2019-06-01T20:03:22.039Z,98700.23
2019-06-01T20:05:50.701Z,98700.69
2019-06-01T20:08:20.317Z,98706.63
2019-06-01T20:10:49.993Z,98703.87
2019-06-01T20:13:19.604Z,98705.97
2019-06-01T20:15:49.233Z,98701.25
2019-06-01T20:18:19.174Z,98708.02
2019-06-01T20:20:48.979Z,98704.97
2019-06-01T20:23:19.531Z,98712.13
2019-06-01T20:25:49.322Z,98714.19
2019-06-01T20:28:19.656Z,98717.88
2019-06-01T20:30:49.486Z,98722.15
2019-06-01T20:33:20.441Z,98717.06
2019-06-01T20:35:50.328Z,98725.23
2019-06-01T20:38:20.501Z,98721.70
2019-06-01T20:40:50.274Z,98719.79
2019-06-01T20:43:20.846Z,98723.94
2019-06-01T20:45:50.752Z,98730.91
2019-06-01T20:48:20.889Z,98724.17
2019-06-01T20:50:50.820Z,98730.23
2019-06-01T20:53:21.009Z,98730.30
2019-06-01T20:55:50.832Z,98725.80
2019-06-01T20:58:22.032Z,98728.81
2019-06-01T21:00:51.904Z,98734.02
2019-06-01T21:03:21.904Z,98736.48
2019-06-01T21:05:51.744Z,98732.33
2019-06-01T21:08:22.416Z,98731.59
2019-06-01T21:10:52.269Z,98732.52
2019-06-01T21:13:22.313Z,98731.34
2019-06-01T21:15:52.503Z,98726.48
2019-06-01T21:18:22.658Z,98729.59
2019-06-01T21:20:52.505Z,98731.82
2019-06-01T21:23:23.061Z,98733.06
2019-06-01T21:25:52.768Z,98730.08
2019-06-01T21:28:23.694Z,98732.71
2019-06-01T21:30:53.811Z,98737.45
2019-06-01T21:33:26.571Z,98737.50
2019-06-01T21:35:54.809Z,98738.09
2019-06-01T21:38:25.711Z,98733.95
2019-06-01T21:40:55.454Z,98740.16
2019-06-01T21:43:35.012Z,98742.86
2019-06-01T21:45:56.451Z,98742.34
2019-06-01T21:48:26.121Z,98747.19
2019-06-01T21:50:55.742Z,98743.66
2019-06-01T21:53:26.630Z,98749.61
2019-06-01T21:55:56.499Z,98747.55
2019-06-01T21:58:26.681Z,98752.02
2019-06-01T22:00:57.132Z,98746.52
2019-06-01T22:03:27.398Z,98748.20
2019-06-01T22:05:57.209Z,98749.46
2019-06-01T22:08:27.566Z,98752.88
2019-06-01T22:10:57.457Z,98750.42
2019-06-01T22:13:28.768Z,98749.52
2019-06-01T22:15:58.645Z,98744.34
2019-06-01T22:18:28.268Z,98746.36
2019-06-01T22:20:57.893Z,98749.63
2019-06-01T22:23:28.165Z,98743.98
2019-06-01T22:25:57.934Z,98748.47
2019-06-01T22:28:28.643Z,98745.33
2019-06-01T22:30:58.382Z,98753.08
2019-06-01T22:33:28.813Z,98754.23
2019-06-01T22:35:58.619Z,98749.71
2019-06-01T22:38:28.632Z,98749.16
2019-06-01T22:40:58.266Z,98750.26
2019-06-01T22:43:43.465Z,98752.16
2019-06-01T22:45:59.251Z,98749.05
2019-06-01T22:48:29.265Z,98750.50
2019-06-01T22:50:59.076Z,98748.78
2019-06-01T22:53:28.869Z,98748.05
2019-06-01T22:55:58.522Z,98747.80
2019-06-01T22:58:29.479Z,98739.39
2019-06-01T23:00:59.538Z,98741.37
2019-06-01T23:03:30.204Z,98736.44
2019-06-01T23:05:59.962Z,98739.52
2019-06-01T23:08:29.592Z,98739.06
2019-06-01T23:10:59.233Z,98734.91
2019-06-01T23:13:28.856Z,98731.69
2019-06-01T23:15:58.502Z,98731.34
2019-06-01T23:18:28.136Z,98733.86
2019-06-01T23:20:57.776Z,98730.55
2019-06-01T23:23:28.064Z,98732.73
2019-06-01T23:25:57.842Z,98737.52
2019-06-01T23:28:28.551Z,98736.16
2019-06-01T23:30:58.406Z,98740.03
2019-06-01T23:33:28.893Z,98730.31
2019-06-01T23:35:58.648Z,98729.23
2019-06-01T23:38:28.748Z,98723.45
2019-06-01T23:40:58.491Z,98723.09
2019-06-01T23:43:28.894Z,98717.04
2019-06-01T23:45:58.645Z,98718.89
2019-06-01T23:48:29.318Z,98729.72
2019-06-01T23:50:59.014Z,98717.48
2019-06-01T23:53:29.596Z,98718.19
2019-06-01T23:55:59.327Z,98713.27
2019-06-01T23:58:30.131Z,98703.20
